sensor_id;sensor_type;location;lat;lon;timestamp;temperature;humidity
20654;DHT22;21083;50.898;4.902;2023-04-15T00:01:44;11.00;99.90
20654;DHT22;21083;50.898;4.902;2023-04-15T00:04:11;10.90;99.90
20654;DHT22;21083;50.898;4.902;2023-04-15T00:06:38;11.00;99.90
20654;DHT22;21083;50.898;4.902;2023-04-15T00:09:06;10.90;99.90
20654;DHT22;21083;50.898;4.902;2023-04-15T00:11:33;10.90;99.90
20654;DHT22;21083;50.898;4.902;2023-04-15T00:14:00;10.90;99.90
20654;DHT22;21083;50.898;4.902;2023-04-15T00:16:27;11.00;99.90
20654;DHT22;21083;50.898;4.902;2023-04-15T00:18:54;11.00;99.90
20654;DHT22;21083;50.898;4.902;2023-04-15T00:21:21;11.00;99.90
20654;DHT22;21083;50.898;4.902;2023-04-15T00:23:48;11.10;99.90
20654;DHT22;21083;50.898;4.902;2023-04-15T00:26:19;11.10;99.90
20654;DHT22;21083;50.898;4.902;2023-04-15T00:28:47;11.10;99.90
20654;DHT22;21083;50.898;4.902;2023-04-15T00:31:14;11.10;99.90
20654;DHT22;21083;50.898;4.902;2023-04-15T00:33:40;11.10;99.90
20654;DHT22;21083;50.898;4.902;2023-04-15T00:36:07;11.10;99.90
20654;DHT22;21083;50.898;4.902;2023-04-15T00:38:35;11.20;99.90
20654;DHT22;21083;50.898;4.902;2023-04-15T00:41:02;11.20;99.90
20654;DHT22;21083;50.898;4.902;2023-04-15T00:43:31;11.10;99.90
20654;DHT22;21083;50.898;4.902;2023-04-15T00:45:58;11.20;99.90
20654;DHT22;21083;50.898;4.902;2023-04-15T00:48:27;11.20;99.90
20654;DHT22;21083;50.898;4.902;2023-04-15T00:50:54;11.10;99.90
20654;DHT22;21083;50.898;4.902;2023-04-15T00:53:21;11.10;99.90
20654;DHT22;21083;50.898;4.902;2023-04-15T00:55:48;11.00;99.90
20654;DHT22;21083;50.898;4.902;2023-04-15T00:58:15;11.00;99.90
20654;DHT22;21083;50.898;4.902;2023-04-15T01:00:44;11.00;99.90
20654;DHT22;21083;50.898;4.902;2023-04-15T01:03:11;11.00;99.90
20654;DHT22;21083;50.898;4.902;2023-04-15T01:05:38;11.10;99.90
20654;DHT22;21083;50.898;4.902;2023-04-15T01:08:06;11.00;99.90
20654;DHT22;21083;50.898;4.902;2023-04-15T01:10:33;11.10;99.90
20654;DHT22;21083;50.898;4.902;2023-04-15T01:12:59;11.10;99.90
20654;DHT22;21083;50.898;4.902;2023-04-15T01:15:26;11.10;99.90
20654;DHT22;21083;50.898;4.902;2023-04-15T01:17:56;11.10;99.90
20654;DHT22;21083;50.898;4.902;2023-04-15T01:20:23;11.10;99.90
20654;DHT22;21083;50.898;4.902;2023-04-15T01:22:50;11.10;99.90
20654;DHT22;21083;50.898;4.902;2023-04-15T01:25:18;11.10;99.90
20654;DHT22;21083;50.898;4.902;2023-04-15T01:27:47;11.00;99.90
20654;DHT22;21083;50.898;4.902;2023-04-15T01:30:14;11.00;99.90
20654;DHT22;21083;50.898;4.902;2023-04-15T01:32:42;10.90;99.90
20654;DHT22;21083;50.898;4.902;2023-04-15T01:35:08;11.00;99.90
20654;DHT22;21083;50.898;4.902;2023-04-15T01:37:35;10.90;99.90
20654;DHT22;21083;50.898;4.902;2023-04-15T01:40:03;10.90;99.90
20654;DHT22;21083;50.898;4.902;2023-04-15T01:42:30;10.90;99.90
20654;DHT22;21083;50.898;4.902;2023-04-15T01:44:59;10.90;99.90
20654;DHT22;21083;50.898;4.902;2023-04-15T01:47:26;10.90;99.90
20654;DHT22;21083;50.898;4.902;2023-04-15T01:49:53;10.80;99.90
20654;DHT22;21083;50.898;4.902;2023-04-15T01:52:20;10.80;99.90
20654;DHT22;21083;50.898;4.902;2023-04-15T01:54:48;10.80;99.90
20654;DHT22;21083;50.898;4.902;2023-04-15T01:57:15;10.80;99.90
20654;DHT22;21083;50.898;4.902;2023-04-15T01:59:42;10.70;99.90
20654;DHT22;21083;50.898;4.902;2023-04-15T02:02:10;10.80;99.90
20654;DHT22;21083;50.898;4.902;2023-04-15T02:04:37;10.70;99.90
20654;DHT22;21083;50.898;4.902;2023-04-15T02:07:04;10.70;99.90
20654;DHT22;21083;50.898;4.902;2023-04-15T02:09:31;10.70;99.90
20654;DHT22;21083;50.898;4.902;2023-04-15T02:11:59;10.70;99.90
20654;DHT22;21083;50.898;4.902;2023-04-15T02:14:26;10.70;99.90
20654;DHT22;21083;50.898;4.902;2023-04-15T02:16:53;10.70;99.90
20654;DHT22;21083;50.898;4.902;2023-04-15T02:19:21;10.70;99.90
20654;DHT22;21083;50.898;4.902;2023-04-15T02:21:48;10.70;99.90
20654;DHT22;21083;50.898;4.902;2023-04-15T02:24:15;10.70;99.90
20654;DHT22;21083;50.898;4.902;2023-04-15T02:26:42;10.60;99.90
20654;DHT22;21083;50.898;4.902;2023-04-15T02:29:09;10.60;99.90
20654;DHT22;21083;50.898;4.902;2023-04-15T02:31:36;10.60;99.90
20654;DHT22;21083;50.898;4.902;2023-04-15T02:34:05;10.60;99.90
20654;DHT22;21083;50.898;4.902;2023-04-15T02:36:33;10.60;99.90
20654;DHT22;21083;50.898;4.902;2023-04-15T02:39:00;10.60;99.90
20654;DHT22;21083;50.898;4.902;2023-04-15T02:41:28;10.50;99.90
20654;DHT22;21083;50.898;4.902;2023-04-15T02:43:55;10.50;99.90
20654;DHT22;21083;50.898;4.902;2023-04-15T02:46:23;10.60;99.90
20654;DHT22;21083;50.898;4.902;2023-04-15T02:48:50;10.60;99.90
20654;DHT22;21083;50.898;4.902;2023-04-15T02:51:19;10.60;99.90
20654;DHT22;21083;50.898;4.902;2023-04-15T02:53:48;10.50;99.90
20654;DHT22;21083;50.898;4.902;2023-04-15T02:56:16;10.50;99.90
20654;DHT22;21083;50.898;4.902;2023-04-15T02:58:44;10.50;99.90
20654;DHT22;21083;50.898;4.902;2023-04-15T03:01:12;10.50;99.90
20654;DHT22;21083;50.898;4.902;2023-04-15T03:03:39;10.50;99.90
20654;DHT22;21083;50.898;4.902;2023-04-15T03:06:06;10.60;99.90
20654;DHT22;21083;50.898;4.902;2023-04-15T03:08:35;10.50;99.90
20654;DHT22;21083;50.898;4.902;2023-04-15T03:11:03;10.50;99.90
20654;DHT22;21083;50.898;4.902;2023-04-15T03:13:30;10.50;99.90
20654;DHT22;21083;50.898;4.902;2023-04-15T03:15:57;10.30;99.90
20654;DHT22;21083;50.898;4.902;2023-04-15T03:18:24;10.40;99.90
20654;DHT22;21083;50.898;4.902;2023-04-15T03:20:51;10.40;99.90
20654;DHT22;21083;50.898;4.902;2023-04-15T03:23:18;10.50;99.90
20654;DHT22;21083;50.898;4.902;2023-04-15T03:25:45;10.40;99.90
20654;DHT22;21083;50.898;4.902;2023-04-15T03:28:13;10.40;99.90
20654;DHT22;21083;50.898;4.902;2023-04-15T03:30:40;10.40;99.90
20654;DHT22;21083;50.898;4.902;2023-04-15T03:33:07;10.30;99.90
20654;DHT22;21083;50.898;4.902;2023-04-15T03:35:34;10.30;99.90
20654;DHT22;21083;50.898;4.902;2023-04-15T03:38:01;10.40;99.90
20654;DHT22;21083;50.898;4.902;2023-04-15T03:40:28;10.40;99.90
20654;DHT22;21083;50.898;4.902;2023-04-15T03:42:54;10.40;99.90
20654;DHT22;21083;50.898;4.902;2023-04-15T03:45:23;10.30;99.90
20654;DHT22;21083;50.898;4.902;2023-04-15T03:47:50;10.30;99.90
20654;DHT22;21083;50.898;4.902;2023-04-15T03:50:17;10.40;99.90
20654;DHT22;21083;50.898;4.902;2023-04-15T03:52:44;10.40;99.90
20654;DHT22;21083;50.898;4.902;2023-04-15T03:55:11;10.40;99.90
20654;DHT22;21083;50.898;4.902;2023-04-15T03:57:37;10.30;99.90
20654;DHT22;21083;50.898;4.902;2023-04-15T04:00:06;10.20;99.90
20654;DHT22;21083;50.898;4.902;2023-04-15T04:02:35;10.20;99.90
20654;DHT22;21083;50.898;4.902;2023-04-15T04:05:02;10.20;99.90
20654;DHT22;21083;50.898;4.902;2023-04-15T04:07:29;10.10;99.90
20654;DHT22;21083;50.898;4.902;2023-04-15T04:09:56;10.10;99.90
20654;DHT22;21083;50.898;4.902;2023-04-15T04:12:23;10.10;99.90
20654;DHT22;21083;50.898;4.902;2023-04-15T04:14:50;10.00;99.90
20654;DHT22;21083;50.898;4.902;2023-04-15T04:17:17;10.00;99.90
20654;DHT22;21083;50.898;4.902;2023-04-15T04:19:45;10.00;99.90
20654;DHT22;21083;50.898;4.902;2023-04-15T04:22:12;10.00;99.90
20654;DHT22;21083;50.898;4.902;2023-04-15T04:24:39;9.90;99.90
20654;DHT22;21083;50.898;4.902;2023-04-15T04:27:06;9.80;99.90
20654;DHT22;21083;50.898;4.902;2023-04-15T04:29:33;9.70;99.90
20654;DHT22;21083;50.898;4.902;2023-04-15T04:32:00;9.70;99.90
20654;DHT22;21083;50.898;4.902;2023-04-15T04:34:26;9.80;99.90
20654;DHT22;21083;50.898;4.902;2023-04-15T04:36:56;9.90;99.90
20654;DHT22;21083;50.898;4.902;2023-04-15T04:39:23;9.90;99.90
20654;DHT22;21083;50.898;4.902;2023-04-15T04:41:49;9.90;99.90
20654;DHT22;21083;50.898;4.902;2023-04-15T04:44:17;9.90;99.90
20654;DHT22;21083;50.898;4.902;2023-04-15T04:46:43;9.90;99.90
20654;DHT22;21083;50.898;4.902;2023-04-15T04:49:10;9.90;99.90
20654;DHT22;21083;50.898;4.902;2023-04-15T04:51:37;10.00;99.90
20654;DHT22;21083;50.898;4.902;2023-04-15T04:54:05;9.90;99.90
20654;DHT22;21083;50.898;4.902;2023-04-15T04:56:33;9.90;99.90
20654;DHT22;21083;50.898;4.902;2023-04-15T04:59:00;9.90;99.90
20654;DHT22;21083;50.898;4.902;2023-04-15T05:01:27;9.90;99.90
20654;DHT22;21083;50.898;4.902;2023-04-15T05:03:54;9.90;99.90
20654;DHT22;21083;50.898;4.902;2023-04-15T05:06:22;9.90;99.90
20654;DHT22;21083;50.898;4.902;2023-04-15T05:08:49;9.90;99.90
20654;DHT22;21083;50.898;4.902;2023-04-15T05:11:17;9.90;99.90
20654;DHT22;21083;50.898;4.902;2023-04-15T05:13:44;9.90;99.90
20654;DHT22;21083;50.898;4.902;2023-04-15T05:16:11;10.00;99.90
20654;DHT22;21083;50.898;4.902;2023-04-15T05:18:38;10.00;99.90
20654;DHT22;21083;50.898;4.902;2023-04-15T05:21:05;10.00;99.90
20654;DHT22;21083;50.898;4.902;2023-04-15T05:23:32;10.00;99.90
20654;DHT22;21083;50.898;4.902;2023-04-15T05:25:59;9.90;99.90
20654;DHT22;21083;50.898;4.902;2023-04-15T05:28:27;10.00;99.90
20654;DHT22;21083;50.898;4.902;2023-04-15T05:30:54;10.00;99.90
20654;DHT22;21083;50.898;4.902;2023-04-15T05:33:21;10.00;99.90
20654;DHT22;21083;50.898;4.902;2023-04-15T05:35:48;10.10;99.90
20654;DHT22;21083;50.898;4.902;2023-04-15T05:38:15;10.00;99.90
20654;DHT22;21083;50.898;4.902;2023-04-15T05:40:42;10.00;99.90
20654;DHT22;21083;50.898;4.902;2023-04-15T05:43:09;10.10;99.90
20654;DHT22;21083;50.898;4.902;2023-04-15T05:45:37;10.10;99.90
20654;DHT22;21083;50.898;4.902;2023-04-15T05:48:04;10.10;99.90
20654;DHT22;21083;50.898;4.902;2023-04-15T05:50:31;10.10;99.90
20654;DHT22;21083;50.898;4.902;2023-04-15T05:52:58;10.10;99.90
20654;DHT22;21083;50.898;4.902;2023-04-15T05:55:25;10.20;99.90
20654;DHT22;21083;50.898;4.902;2023-04-15T05:57:52;10.20;99.90
20654;DHT22;21083;50.898;4.902;2023-04-15T06:00:19;10.20;99.90
20654;DHT22;21083;50.898;4.902;2023-04-15T06:02:48;10.20;99.90
20654;DHT22;21083;50.898;4.902;2023-04-15T06:05:16;10.30;99.90
20654;DHT22;21083;50.898;4.902;2023-04-15T06:07:42;10.30;99.90
20654;DHT22;21083;50.898;4.902;2023-04-15T06:10:10;10.30;99.90
20654;DHT22;21083;50.898;4.902;2023-04-15T06:12:37;10.40;99.90
20654;DHT22;21083;50.898;4.902;2023-04-15T06:15:04;10.40;99.90
20654;DHT22;21083;50.898;4.902;2023-04-15T06:17:34;10.50;99.90
20654;DHT22;21083;50.898;4.902;2023-04-15T06:20:03;10.50;99.90
20654;DHT22;21083;50.898;4.902;2023-04-15T06:22:30;10.50;99.90
20654;DHT22;21083;50.898;4.902;2023-04-15T06:24:57;10.60;99.90
20654;DHT22;21083;50.898;4.902;2023-04-15T06:27:24;10.70;99.90
20654;DHT22;21083;50.898;4.902;2023-04-15T06:29:51;10.70;99.90
20654;DHT22;21083;50.898;4.902;2023-04-15T06:32:18;10.80;99.90
20654;DHT22;21083;50.898;4.902;2023-04-15T06:34:44;10.80;99.90
20654;DHT22;21083;50.898;4.902;2023-04-15T06:37:13;10.90;99.90
20654;DHT22;21083;50.898;4.902;2023-04-15T06:39:40;11.00;99.90
20654;DHT22;21083;50.898;4.902;2023-04-15T06:42:08;11.10;99.90
20654;DHT22;21083;50.898;4.902;2023-04-15T06:44:35;11.20;99.90
20654;DHT22;21083;50.898;4.902;2023-04-15T06:47:02;11.40;99.90
20654;DHT22;21083;50.898;4.902;2023-04-15T06:49:29;11.50;99.90
20654;DHT22;21083;50.898;4.902;2023-04-15T06:51:56;11.60;99.90
20654;DHT22;21083;50.898;4.902;2023-04-15T06:54:25;11.70;99.90
20654;DHT22;21083;50.898;4.902;2023-04-15T06:56:52;11.90;99.90
20654;DHT22;21083;50.898;4.902;2023-04-15T06:59:19;12.00;99.90
20654;DHT22;21083;50.898;4.902;2023-04-15T07:01:45;12.10;99.90
20654;DHT22;21083;50.898;4.902;2023-04-15T07:04:12;12.20;99.90
20654;DHT22;21083;50.898;4.902;2023-04-15T07:06:39;12.30;99.90
20654;DHT22;21083;50.898;4.902;2023-04-15T07:09:06;12.40;99.90
20654;DHT22;21083;50.898;4.902;2023-04-15T07:11:35;12.40;99.90
20654;DHT22;21083;50.898;4.902;2023-04-15T07:14:02;12.40;99.90
20654;DHT22;21083;50.898;4.902;2023-04-15T07:16:29;12.30;99.90
20654;DHT22;21083;50.898;4.902;2023-04-15T07:18:56;12.30;99.90
20654;DHT22;21083;50.898;4.902;2023-04-15T07:21:23;12.30;99.90
20654;DHT22;21083;50.898;4.902;2023-04-15T07:23:50;12.30;99.90
20654;DHT22;21083;50.898;4.902;2023-04-15T07:26:17;12.30;99.90
20654;DHT22;21083;50.898;4.902;2023-04-15T07:28:45;12.30;99.90
20654;DHT22;21083;50.898;4.902;2023-04-15T07:31:12;12.20;99.90
20654;DHT22;21083;50.898;4.902;2023-04-15T07:33:39;12.20;99.90
20654;DHT22;21083;50.898;4.902;2023-04-15T07:36:06;12.20;99.90
20654;DHT22;21083;50.898;4.902;2023-04-15T07:38:33;12.30;99.90
20654;DHT22;21083;50.898;4.902;2023-04-15T07:41:00;12.30;99.90
20654;DHT22;21083;50.898;4.902;2023-04-15T07:43:28;12.40;99.90
20654;DHT22;21083;50.898;4.902;2023-04-15T07:45:56;12.50;99.90
20654;DHT22;21083;50.898;4.902;2023-04-15T07:48:23;12.50;99.90
20654;DHT22;21083;50.898;4.902;2023-04-15T07:50:50;12.60;99.90
20654;DHT22;21083;50.898;4.902;2023-04-15T07:53:17;12.70;99.90
20654;DHT22;21083;50.898;4.902;2023-04-15T07:55:44;12.80;99.90
20654;DHT22;21083;50.898;4.902;2023-04-15T07:58:11;12.90;99.90
20654;DHT22;21083;50.898;4.902;2023-04-15T08:00:37;13.00;99.90
20654;DHT22;21083;50.898;4.902;2023-04-15T08:03:06;13.10;99.90
20654;DHT22;21083;50.898;4.902;2023-04-15T08:05:33;13.20;99.90
20654;DHT22;21083;50.898;4.902;2023-04-15T08:08:00;13.40;99.90
20654;DHT22;21083;50.898;4.902;2023-04-15T08:10:28;13.50;99.90
20654;DHT22;21083;50.898;4.902;2023-04-15T08:12:55;13.60;99.90
20654;DHT22;21083;50.898;4.902;2023-04-15T08:15:22;13.80;99.90
20654;DHT22;21083;50.898;4.902;2023-04-15T08:17:49;13.70;99.90
20654;DHT22;21083;50.898;4.902;2023-04-15T08:20:17;13.90;99.90
20654;DHT22;21083;50.898;4.902;2023-04-15T08:22:44;14.00;99.90
20654;DHT22;21083;50.898;4.902;2023-04-15T08:25:12;14.00;99.90
20654;DHT22;21083;50.898;4.902;2023-04-15T08:27:39;14.10;99.90
20654;DHT22;21083;50.898;4.902;2023-04-15T08:30:07;14.20;99.90
20654;DHT22;21083;50.898;4.902;2023-04-15T08:32:34;14.30;99.90
20654;DHT22;21083;50.898;4.902;2023-04-15T08:35:02;14.40;99.90
20654;DHT22;21083;50.898;4.902;2023-04-15T08:37:30;14.50;99.90
20654;DHT22;21083;50.898;4.902;2023-04-15T08:39:57;14.50;99.90
20654;DHT22;21083;50.898;4.902;2023-04-15T08:42:29;14.80;99.90
20654;DHT22;21083;50.898;4.902;2023-04-15T08:44:58;14.90;99.90
20654;DHT22;21083;50.898;4.902;2023-04-15T08:47:29;15.00;99.90
20654;DHT22;21083;50.898;4.902;2023-04-15T08:49:57;15.20;99.90
20654;DHT22;21083;50.898;4.902;2023-04-15T08:52:25;15.40;99.90
20654;DHT22;21083;50.898;4.902;2023-04-15T08:54:56;15.50;99.90
20654;DHT22;21083;50.898;4.902;2023-04-15T08:57:25;15.70;99.90
20654;DHT22;21083;50.898;4.902;2023-04-15T08:59:54;15.70;99.90
20654;DHT22;21083;50.898;4.902;2023-04-15T09:02:22;15.90;99.90
20654;DHT22;21083;50.898;4.902;2023-04-15T09:04:50;16.00;99.90
20654;DHT22;21083;50.898;4.902;2023-04-15T09:07:17;16.20;99.90
20654;DHT22;21083;50.898;4.902;2023-04-15T09:09:44;16.20;99.90
20654;DHT22;21083;50.898;4.902;2023-04-15T09:12:12;16.30;99.90
20654;DHT22;21083;50.898;4.902;2023-04-15T09:14:39;16.50;99.90
20654;DHT22;21083;50.898;4.902;2023-04-15T09:17:09;16.70;99.90
20654;DHT22;21083;50.898;4.902;2023-04-15T09:19:37;16.60;99.90
20654;DHT22;21083;50.898;4.902;2023-04-15T09:22:04;16.70;99.90
20654;DHT22;21083;50.898;4.902;2023-04-15T09:24:35;16.80;99.90
20654;DHT22;21083;50.898;4.902;2023-04-15T09:27:08;16.90;99.90
20654;DHT22;21083;50.898;4.902;2023-04-15T09:29:36;17.00;99.90
20654;DHT22;21083;50.898;4.902;2023-04-15T09:32:10;17.00;99.90
20654;DHT22;21083;50.898;4.902;2023-04-15T09:34:38;17.00;99.90
20654;DHT22;21083;50.898;4.902;2023-04-15T09:37:05;17.10;99.90
20654;DHT22;21083;50.898;4.902;2023-04-15T09:39:45;17.20;99.90
20654;DHT22;21083;50.898;4.902;2023-04-15T09:42:13;17.30;99.90
20654;DHT22;21083;50.898;4.902;2023-04-15T09:44:41;17.40;99.90
20654;DHT22;21083;50.898;4.902;2023-04-15T09:47:08;17.70;99.90
20654;DHT22;21083;50.898;4.902;2023-04-15T09:49:35;17.60;99.90
20654;DHT22;21083;50.898;4.902;2023-04-15T09:52:02;17.70;99.90
20654;DHT22;21083;50.898;4.902;2023-04-15T09:54:34;17.90;99.90
20654;DHT22;21083;50.898;4.902;2023-04-15T09:57:05;17.80;99.90
20654;DHT22;21083;50.898;4.902;2023-04-15T09:59:32;17.90;99.90
20654;DHT22;21083;50.898;4.902;2023-04-15T10:02:03;18.00;99.90
20654;DHT22;21083;50.898;4.902;2023-04-15T10:04:35;18.20;99.90
20654;DHT22;21083;50.898;4.902;2023-04-15T10:07:06;18.50;99.90
20654;DHT22;21083;50.898;4.902;2023-04-15T10:09:35;18.30;99.90
20654;DHT22;21083;50.898;4.902;2023-04-15T10:12:02;18.40;99.90
20654;DHT22;21083;50.898;4.902;2023-04-15T10:14:32;18.40;99.90
20654;DHT22;21083;50.898;4.902;2023-04-15T10:17:03;18.40;99.90
20654;DHT22;21083;50.898;4.902;2023-04-15T10:19:32;18.60;99.90
20654;DHT22;21083;50.898;4.902;2023-04-15T10:21:59;18.80;99.90
20654;DHT22;21083;50.898;4.902;2023-04-15T10:24:26;19.00;99.90
20654;DHT22;21083;50.898;4.902;2023-04-15T10:26:54;19.20;99.90
20654;DHT22;21083;50.898;4.902;2023-04-15T10:29:23;19.30;99.90
20654;DHT22;21083;50.898;4.902;2023-04-15T10:31:51;19.40;99.90
20654;DHT22;21083;50.898;4.902;2023-04-15T10:34:21;19.40;99.90
20654;DHT22;21083;50.898;4.902;2023-04-15T10:36:48;19.40;99.90
20654;DHT22;21083;50.898;4.902;2023-04-15T10:39:38;19.30;99.90
20654;DHT22;21083;50.898;4.902;2023-04-15T10:42:06;19.20;99.90
20654;DHT22;21083;50.898;4.902;2023-04-15T10:44:35;19.30;99.90
20654;DHT22;21083;50.898;4.902;2023-04-15T10:47:07;19.50;99.90
20654;DHT22;21083;50.898;4.902;2023-04-15T10:49:43;19.60;99.90
20654;DHT22;21083;50.898;4.902;2023-04-15T10:52:11;19.60;99.90
20654;DHT22;21083;50.898;4.902;2023-04-15T10:54:38;19.80;99.90
20654;DHT22;21083;50.898;4.902;2023-04-15T10:57:13;20.00;99.90
20654;DHT22;21083;50.898;4.902;2023-04-15T10:59:58;20.20;99.90
20654;DHT22;21083;50.898;4.902;2023-04-15T11:02:38;20.40;99.90
20654;DHT22;21083;50.898;4.902;2023-04-15T11:05:07;20.60;99.90
20654;DHT22;21083;50.898;4.902;2023-04-15T11:07:49;20.80;99.90
20654;DHT22;21083;50.898;4.902;2023-04-15T11:10:50;21.00;99.90
20654;DHT22;21083;50.898;4.902;2023-04-15T11:13:20;21.30;99.90
20654;DHT22;21083;50.898;4.902;2023-04-15T11:15:48;21.30;99.90
20654;DHT22;21083;50.898;4.902;2023-04-15T11:18:18;21.30;99.90
20654;DHT22;21083;50.898;4.902;2023-04-15T11:20:48;21.20;99.90
20654;DHT22;21083;50.898;4.902;2023-04-15T11:23:17;21.30;99.90
20654;DHT22;21083;50.898;4.902;2023-04-15T11:25:44;21.40;99.90
20654;DHT22;21083;50.898;4.902;2023-04-15T11:28:12;21.50;99.90
20654;DHT22;21083;50.898;4.902;2023-04-15T11:30:40;21.70;99.90
20654;DHT22;21083;50.898;4.902;2023-04-15T11:33:09;21.80;99.90
20654;DHT22;21083;50.898;4.902;2023-04-15T11:35:37;21.50;99.90
20654;DHT22;21083;50.898;4.902;2023-04-15T11:38:08;21.50;99.90
20654;DHT22;21083;50.898;4.902;2023-04-15T11:40:37;21.60;99.90
20654;DHT22;21083;50.898;4.902;2023-04-15T11:43:05;21.50;99.90
20654;DHT22;21083;50.898;4.902;2023-04-15T11:45:33;21.60;99.90
20654;DHT22;21083;50.898;4.902;2023-04-15T11:48:05;21.80;99.90
20654;DHT22;21083;50.898;4.902;2023-04-15T11:50:32;22.00;99.90
20654;DHT22;21083;50.898;4.902;2023-04-15T11:53:00;22.10;99.90
20654;DHT22;21083;50.898;4.902;2023-04-15T11:55:29;22.30;99.90
20654;DHT22;21083;50.898;4.902;2023-04-15T11:58:08;22.40;99.90
20654;DHT22;21083;50.898;4.902;2023-04-15T12:00:36;22.50;99.90
20654;DHT22;21083;50.898;4.902;2023-04-15T12:03:18;22.60;99.90
20654;DHT22;21083;50.898;4.902;2023-04-15T12:06:08;22.50;99.90
20654;DHT22;21083;50.898;4.902;2023-04-15T12:08:55;22.60;99.90
20654;DHT22;21083;50.898;4.902;2023-04-15T12:11:33;22.70;99.90
20654;DHT22;21083;50.898;4.902;2023-04-15T12:14:04;22.90;99.90
20654;DHT22;21083;50.898;4.902;2023-04-15T12:16:33;22.90;99.90
20654;DHT22;21083;50.898;4.902;2023-04-15T12:19:04;23.10;99.90
20654;DHT22;21083;50.898;4.902;2023-04-15T12:21:34;23.20;99.90
20654;DHT22;21083;50.898;4.902;2023-04-15T12:24:02;23.50;99.90
20654;DHT22;21083;50.898;4.902;2023-04-15T12:26:33;23.60;99.90
20654;DHT22;21083;50.898;4.902;2023-04-15T12:29:00;23.50;99.90
20654;DHT22;21083;50.898;4.902;2023-04-15T12:31:28;23.30;99.90
20654;DHT22;21083;50.898;4.902;2023-04-15T12:33:55;23.20;99.90
20654;DHT22;21083;50.898;4.902;2023-04-15T12:36:22;23.10;99.90
20654;DHT22;21083;50.898;4.902;2023-04-15T12:38:49;23.20;99.90
20654;DHT22;21083;50.898;4.902;2023-04-15T12:41:16;23.10;99.90
20654;DHT22;21083;50.898;4.902;2023-04-15T12:43:45;23.10;99.90
20654;DHT22;21083;50.898;4.902;2023-04-15T12:46:12;23.30;99.90
20654;DHT22;21083;50.898;4.902;2023-04-15T12:48:40;23.50;99.90
20654;DHT22;21083;50.898;4.902;2023-04-15T12:51:07;23.60;99.90
20654;DHT22;21083;50.898;4.902;2023-04-15T12:53:33;23.70;99.90
20654;DHT22;21083;50.898;4.902;2023-04-15T12:56:00;23.60;99.90
20654;DHT22;21083;50.898;4.902;2023-04-15T12:58:27;23.80;99.90
20654;DHT22;21083;50.898;4.902;2023-04-15T13:00:55;23.90;99.90
20654;DHT22;21083;50.898;4.902;2023-04-15T13:03:22;24.00;99.90
20654;DHT22;21083;50.898;4.902;2023-04-15T13:05:49;23.70;99.90
20654;DHT22;21083;50.898;4.902;2023-04-15T13:08:17;23.40;99.90
20654;DHT22;21083;50.898;4.902;2023-04-15T13:10:43;23.40;99.90
20654;DHT22;21083;50.898;4.902;2023-04-15T13:13:10;23.50;99.90
20654;DHT22;21083;50.898;4.902;2023-04-15T13:15:37;23.60;99.90
20654;DHT22;21083;50.898;4.902;2023-04-15T13:18:05;23.70;99.90
20654;DHT22;21083;50.898;4.902;2023-04-15T13:20:32;23.90;99.90
20654;DHT22;21083;50.898;4.902;2023-04-15T13:22:59;24.00;99.90
20654;DHT22;21083;50.898;4.902;2023-04-15T13:25:26;24.10;99.90
20654;DHT22;21083;50.898;4.902;2023-04-15T13:27:53;24.20;99.90
20654;DHT22;21083;50.898;4.902;2023-04-15T13:30:20;24.00;99.90
20654;DHT22;21083;50.898;4.902;2023-04-15T13:32:47;24.00;99.90
20654;DHT22;21083;50.898;4.902;2023-04-15T13:35:15;23.90;99.90
20654;DHT22;21083;50.898;4.902;2023-04-15T13:37:42;24.00;99.90
20654;DHT22;21083;50.898;4.902;2023-04-15T13:40:09;24.20;99.90
20654;DHT22;21083;50.898;4.902;2023-04-15T13:42:36;24.10;99.90
20654;DHT22;21083;50.898;4.902;2023-04-15T13:45:04;24.30;99.90
20654;DHT22;21083;50.898;4.902;2023-04-15T13:47:31;24.70;99.90
20654;DHT22;21083;50.898;4.902;2023-04-15T13:49:58;25.00;99.90
20654;DHT22;21083;50.898;4.902;2023-04-15T13:52:26;25.10;99.90
20654;DHT22;21083;50.898;4.902;2023-04-15T13:54:53;25.20;99.90
20654;DHT22;21083;50.898;4.902;2023-04-15T13:57:20;25.30;99.90
20654;DHT22;21083;50.898;4.902;2023-04-15T13:59:47;25.30;99.90
20654;DHT22;21083;50.898;4.902;2023-04-15T14:02:14;25.30;99.90
20654;DHT22;21083;50.898;4.902;2023-04-15T14:04:41;25.30;99.90
20654;DHT22;21083;50.898;4.902;2023-04-15T14:07:07;25.20;99.90
20654;DHT22;21083;50.898;4.902;2023-04-15T14:09:36;25.20;99.90
20654;DHT22;21083;50.898;4.902;2023-04-15T14:12:03;24.80;99.90
20654;DHT22;21083;50.898;4.902;2023-04-15T14:14:30;24.90;99.90
20654;DHT22;21083;50.898;4.902;2023-04-15T14:16:57;25.00;99.90
20654;DHT22;21083;50.898;4.902;2023-04-15T14:19:24;25.10;99.90
20654;DHT22;21083;50.898;4.902;2023-04-15T14:21:51;25.20;99.90
20654;DHT22;21083;50.898;4.902;2023-04-15T14:24:17;25.20;99.90
20654;DHT22;21083;50.898;4.902;2023-04-15T14:26:45;25.10;99.90
20654;DHT22;21083;50.898;4.902;2023-04-15T14:29:12;25.20;99.90
20654;DHT22;21083;50.898;4.902;2023-04-15T14:31:39;25.20;99.90
20654;DHT22;21083;50.898;4.902;2023-04-15T14:34:07;25.30;99.90
20654;DHT22;21083;50.898;4.902;2023-04-15T14:36:34;25.50;99.90
20654;DHT22;21083;50.898;4.902;2023-04-15T14:39:02;25.20;99.90
20654;DHT22;21083;50.898;4.902;2023-04-15T14:41:29;25.20;99.90
20654;DHT22;21083;50.898;4.902;2023-04-15T14:43:57;25.50;99.90
20654;DHT22;21083;50.898;4.902;2023-04-15T14:46:25;25.60;99.90
20654;DHT22;21083;50.898;4.902;2023-04-15T14:48:52;25.80;99.90
20654;DHT22;21083;50.898;4.902;2023-04-15T14:51:19;25.20;99.90
20654;DHT22;21083;50.898;4.902;2023-04-15T14:53:46;25.50;99.90
20654;DHT22;21083;50.898;4.902;2023-04-15T14:56:13;25.80;99.90
20654;DHT22;21083;50.898;4.902;2023-04-15T14:58:40;25.90;99.90
20654;DHT22;21083;50.898;4.902;2023-04-15T15:01:08;26.10;99.90
20654;DHT22;21083;50.898;4.902;2023-04-15T15:03:35;26.00;99.90
20654;DHT22;21083;50.898;4.902;2023-04-15T15:06:02;26.10;99.90
20654;DHT22;21083;50.898;4.902;2023-04-15T15:08:29;26.20;99.90
20654;DHT22;21083;50.898;4.902;2023-04-15T15:10:56;26.40;99.90
20654;DHT22;21083;50.898;4.902;2023-04-15T15:13:23;26.30;99.90
20654;DHT22;21083;50.898;4.902;2023-04-15T15:15:50;26.00;99.90
20654;DHT22;21083;50.898;4.902;2023-04-15T15:18:18;25.40;99.90
20654;DHT22;21083;50.898;4.902;2023-04-15T15:20:45;25.00;99.90
20654;DHT22;21083;50.898;4.902;2023-04-15T15:23:13;24.50;99.90
20654;DHT22;21083;50.898;4.902;2023-04-15T15:25:40;24.30;99.90
20654;DHT22;21083;50.898;4.902;2023-04-15T15:28:08;24.40;99.90
20654;DHT22;21083;50.898;4.902;2023-04-15T15:30:35;24.60;99.90
20654;DHT22;21083;50.898;4.902;2023-04-15T15:33:01;24.70;99.90
20654;DHT22;21083;50.898;4.902;2023-04-15T15:35:30;24.30;99.90
20654;DHT22;21083;50.898;4.902;2023-04-15T15:37:58;24.20;99.90